Time;durP1;ratioP1;P1;durP2;ratioP2;P2;SDS_P1;SDS_P2;PMS_P1;PMS_P2;Temp;Humidity;BMP_temperature;BMP_pressure;BME280_temperature;BME280_humidity;BME280_pressure;Samples;Min_cycle;Max_cycle;Signal;HPM_P1;HPM_P2
2022/08/27 00:01:29;;;;;;;0.10;0.10;;;15.90;99.90;;;;;;5056146;28;20131;-90
2022/08/27 00:03:55;;;;;;;0.10;0.10;;;15.90;99.90;;;;;;5073506;28;20488;-88
2022/08/27 00:06:22;;;;;;;1.42;0.38;;;15.90;99.90;;;;;;5058638;28;20079;-88
2022/08/27 00:08:49;;;;;;;0.52;0.52;;;15.80;99.90;;;;;;5039301;28;20044;-88
2022/08/27 00:11:16;;;;;;;0.22;0.22;;;15.80;99.90;;;;;;5058632;28;20048;-88
2022/08/27 00:13:43;;;;;;;0.40;0.40;;;15.80;99.90;;;;;;5071868;28;20123;-89
2022/08/27 00:16:10;;;;;;;0.10;0.10;;;15.80;99.90;;;;;;5073919;28;20047;-89
2022/08/27 00:18:37;;;;;;;0.03;0.00;;;15.80;99.90;;;;;;5072982;28;20098;-88
2022/08/27 00:21:03;;;;;;;0.10;0.10;;;15.70;99.90;;;;;;5075735;28;20044;-88
2022/08/27 00:23:30;;;;;;;0.32;0.20;;;15.70;99.90;;;;;;5038597;28;20044;-88
2022/08/27 00:25:56;;;;;;;0.03;0.03;;;15.70;99.90;;;;;;5045652;28;20106;-88
2022/08/27 00:28:22;;;;;;;0.30;0.10;;;15.70;99.90;;;;;;5038793;28;20091;-85
2022/08/27 00:30:48;;;;;;;0.32;0.20;;;15.70;99.90;;;;;;5040457;28;20079;-89
2022/08/27 00:33:13;;;;;;;0.43;0.20;;;15.60;99.90;;;;;;5058498;28;20089;-89
2022/08/27 00:35:39;;;;;;;0.00;0.00;;;15.60;99.90;;;;;;5057448;28;20389;-89
2022/08/27 00:38:06;;;;;;;0.00;0.00;;;15.60;99.90;;;;;;5038406;28;20045;-88
2022/08/27 00:40:32;;;;;;;;;;;15.50;99.90;;;;;;5062544;28;20044;-88
2022/08/27 00:43:02;;;;;;;0.05;0.05;;;15.60;99.90;;;;;;5075002;28;20366;-88
2022/08/27 00:45:28;;;;;;;0.13;0.10;;;15.60;99.90;;;;;;5041046;28;20055;-88
2022/08/27 00:47:56;;;;;;;0.08;0.08;;;15.60;99.90;;;;;;5058660;28;20402;-88
2022/08/27 00:50:32;;;;;;;0.20;0.20;;;15.60;99.90;;;;;;5074697;28;20198;-88
2022/08/27 00:53:04;;;;;;;0.25;0.20;;;15.60;99.90;;;;;;5075693;28;20121;-88
2022/08/27 00:55:34;;;;;;;0.25;0.20;;;15.60;99.90;;;;;;5068830;28;20406;-88
2022/08/27 00:58:17;;;;;;;0.10;0.10;;;15.60;99.90;;;;;;5074555;28;20040;-88
2022/08/27 01:00:44;;;;;;;0.10;0.10;;;15.60;99.90;;;;;;5091134;28;20043;-88
2022/08/27 01:03:10;;;;;;;0.38;0.28;;;15.60;99.90;;;;;;5075187;28;20044;-88
2022/08/27 01:05:37;;;;;;;0.08;0.08;;;15.60;99.90;;;;;;5055235;28;20174;-88
2022/08/27 01:08:06;;;;;;;;;;;15.60;99.90;;;;;;5090876;28;20051;-89
2022/08/27 01:10:32;;;;;;;1.85;0.60;;;15.60;99.90;;;;;;5074147;28;20365;-88
2022/08/27 01:12:58;;;;;;;0.20;0.20;;;15.60;99.90;;;;;;5087984;28;20117;-87
2022/08/27 01:15:27;;;;;;;0.20;0.10;;;15.60;99.90;;;;;;5055990;28;20489;-88
2022/08/27 01:17:53;;;;;;;0.10;0.10;;;15.60;99.90;;;;;;5073959;28;20052;-88
2022/08/27 01:20:29;;;;;;;0.35;0.20;;;15.60;99.90;;;;;;5072978;28;20141;-88
2022/08/27 01:23:10;;;;;;;0.55;0.13;;;15.60;99.90;;;;;;5090497;28;20123;-89
2022/08/27 01:25:36;;;;;;;0.85;0.10;;;15.60;99.90;;;;;;5089335;28;20051;-88
2022/08/27 01:28:03;;;;;;;0.13;0.10;;;15.50;99.90;;;;;;5074335;28;20040;-88
2022/08/27 01:30:30;;;;;;;0.10;0.10;;;15.50;99.90;;;;;;5056506;28;20141;-85
2022/08/27 01:32:56;;;;;;;0.00;0.00;;;15.50;99.90;;;;;;5088011;28;20123;-88
2022/08/27 01:35:23;;;;;;;0.20;0.20;;;15.50;99.90;;;;;;5056518;28;20129;-88
2022/08/27 01:37:52;;;;;;;0.20;0.10;;;15.10;99.90;;;;;;5073565;28;20054;-88
2022/08/27 01:40:19;;;;;;;0.38;0.10;;;15.60;99.90;;;;;;5073500;28;20051;-87
2022/08/27 01:42:52;;;;;;;0.20;0.10;;;15.50;99.90;;;;;;5090563;28;20198;-88
2022/08/27 01:45:26;;;;;;;0.38;0.30;;;15.50;99.90;;;;;;5087448;28;20494;-89
2022/08/27 01:47:52;;;;;;;0.00;0.00;;;15.50;99.90;;;;;;5090121;28;20103;-88
2022/08/27 01:50:24;;;;;;;0.00;0.00;;;15.50;99.90;;;;;;5091150;28;20202;-89
2022/08/27 01:52:51;;;;;;;0.22;0.22;;;15.50;99.90;;;;;;5088935;28;20385;-89
2022/08/27 01:55:20;;;;;;;0.00;0.00;;;15.50;99.90;;;;;;5073275;28;20056;-88
2022/08/27 01:57:46;;;;;;;0.25;0.25;;;15.40;99.90;;;;;;5073096;28;20444;-88
2022/08/27 02:00:17;;;;;;;0.20;0.20;;;15.40;99.90;;;;;;5074428;28;20070;-88
2022/08/27 02:02:43;;;;;;;1.35;0.20;;;15.40;99.90;;;;;;5072696;28;20302;-88
2022/08/27 02:05:10;;;;;;;0.30;0.30;;;15.40;99.90;;;;;;5074098;28;20056;-88
2022/08/27 02:07:36;;;;;;;0.10;0.10;;;15.40;99.90;;;;;;5052980;28;20309;-86
2022/08/27 02:10:02;;;;;;;;;;;15.30;99.90;;;;;;5066403;28;20434;-89
2022/08/27 02:12:28;;;;;;;0.00;0.00;;;15.30;99.90;;;;;;5072871;28;19920;-88
2022/08/27 02:14:54;;;;;;;0.10;0.10;;;15.20;99.90;;;;;;5038948;28;20536;-87
2022/08/27 02:17:19;;;;;;;0.20;0.13;;;15.20;99.90;;;;;;5053607;28;20548;-88
2022/08/27 02:19:45;;;;;;;0.20;0.20;;;15.20;99.90;;;;;;5072994;28;20044;-89
2022/08/27 02:22:13;;;;;;;0.27;0.20;;;15.20;99.90;;;;;;5056513;28;20075;-87
2022/08/27 02:24:40;;;;;;;0.10;0.10;;;15.20;99.90;;;;;;5089497;28;20105;-87
2022/08/27 02:27:05;;;;;;;0.20;0.20;;;15.20;99.90;;;;;;5087186;28;20076;-89
2022/08/27 02:29:33;;;;;;;0.28;0.10;;;15.20;99.90;;;;;;5053065;28;20153;-88
2022/08/27 02:32:00;;;;;;;0.00;0.00;;;15.20;99.90;;;;;;5072410;28;20051;-89
2022/08/27 02:34:27;;;;;;;0.15;0.10;;;15.20;99.90;;;;;;5071981;28;20062;-88
2022/08/27 02:36:52;;;;;;;;;;;15.20;99.90;;;;;;5055749;28;20051;-88
2022/08/27 02:39:18;;;;;;;0.43;0.30;;;15.10;99.90;;;;;;5069326;28;19920;-88
2022/08/27 02:41:44;;;;;;;0.20;0.20;;;15.10;99.90;;;;;;5094103;28;20093;-88
2022/08/27 02:44:10;;;;;;;0.23;0.20;;;15.10;99.90;;;;;;5077127;28;20491;-89
2022/08/27 02:46:37;;;;;;;0.30;0.30;;;15.00;99.90;;;;;;5076188;28;20131;-88
2022/08/27 02:49:03;;;;;;;0.20;0.20;;;15.00;99.90;;;;;;5064165;28;20047;-89
2022/08/27 02:51:28;;;;;;;0.47;0.27;;;15.00;99.90;;;;;;5060951;28;20044;-88
2022/08/27 02:53:54;;;;;;;0.10;0.10;;;15.00;99.90;;;;;;5092880;28;20056;-89
2022/08/27 02:56:20;;;;;;;0.20;0.10;;;15.00;99.90;;;;;;5093122;28;20301;-88
2022/08/27 02:58:46;;;;;;;0.98;0.17;;;15.00;99.90;;;;;;5059358;28;20044;-88
2022/08/27 03:01:11;;;;;;;0.53;0.50;;;14.90;99.90;;;;;;5077058;28;20371;-88
2022/08/27 03:03:37;;;;;;;0.20;0.20;;;14.90;99.90;;;;;;5076873;28;20048;-88
2022/08/27 03:06:03;;;;;;;0.40;0.20;;;14.90;99.90;;;;;;5091887;28;20044;-88
2022/08/27 03:08:28;;;;;;;0.30;0.30;;;14.90;99.90;;;;;;5077060;28;20340;-88
2022/08/27 03:10:55;;;;;;;0.10;0.10;;;14.80;99.90;;;;;;5055859;28;20059;-88
2022/08/27 03:13:22;;;;;;;0.30;0.30;;;14.80;99.90;;;;;;5073680;28;20056;-88
2022/08/27 03:15:47;;;;;;;0.50;0.40;;;14.80;99.90;;;;;;5087105;28;20118;-87
2022/08/27 03:18:20;;;;;;;0.10;0.10;;;14.80;99.90;;;;;;5076443;28;20438;-88
2022/08/27 03:20:52;;;;;;;0.15;0.10;;;14.80;99.90;;;;;;5075396;28;20405;-87
2022/08/27 03:23:21;;;;;;;0.30;0.30;;;14.80;99.90;;;;;;5077017;28;20044;-88
2022/08/27 03:25:56;;;;;;;0.00;0.00;;;14.70;99.90;;;;;;5075346;28;20040;-87
2022/08/27 03:28:24;;;;;;;0.10;0.10;;;14.80;99.90;;;;;;5093839;28;20470;-88
2022/08/27 03:30:53;;;;;;;0.10;0.10;;;14.80;99.90;;;;;;5075040;28;20078;-88
2022/08/27 03:33:20;;;;;;;0.00;0.00;;;14.80;99.90;;;;;;5076716;28;20078;-88
2022/08/27 03:35:48;;;;;;;0.35;0.30;;;14.80;99.90;;;;;;5055588;28;20098;-86
2022/08/27 03:38:14;;;;;;;0.30;0.10;;;14.80;99.90;;;;;;5066677;28;20058;-88
2022/08/27 03:40:41;;;;;;;0.45;0.03;;;14.80;99.90;;;;;;5092020;28;20040;-88
2022/08/27 03:43:07;;;;;;;0.08;0.08;;;14.70;99.90;;;;;;5076130;28;20493;-88
2022/08/27 03:45:33;;;;;;;0.10;0.10;;;14.80;99.90;;;;;;5075288;28;20508;-89
2022/08/27 03:47:59;;;;;;;0.60;0.30;;;14.80;99.90;;;;;;5075405;28;20048;-88
2022/08/27 03:50:24;;;;;;;0.10;0.10;;;14.80;99.90;;;;;;5059312;28;20313;-88
2022/08/27 03:52:50;;;;;;;0.07;0.07;;;14.80;99.90;;;;;;5057224;28;20071;-86
2022/08/27 03:55:16;;;;;;;0.10;0.10;;;14.70;99.90;;;;;;5057206;28;20063;-88
2022/08/27 03:57:42;;;;;;;0.10;0.10;;;14.70;99.90;;;;;;5039940;28;20135;-88
2022/08/27 04:00:11;;;;;;;0.20;0.20;;;14.70;99.90;;;;;;5040352;28;20048;-88
2022/08/27 04:02:37;;;;;;;0.13;0.13;;;14.70;99.90;;;;;;5058801;28;20570;-89
2022/08/27 04:05:04;;;;;;;0.50;0.28;;;14.70;99.90;;;;;;5058981;28;20131;-88
2022/08/27 04:07:29;;;;;;;0.15;0.15;;;14.70;99.90;;;;;;5031046;28;20056;-89
2022/08/27 04:09:55;;;;;;;0.63;0.10;;;14.60;99.90;;;;;;5057010;28;20041;-88
2022/08/27 04:12:21;;;;;;;0.30;0.30;;;14.60;99.90;;;;;;5053782;28;20068;-88
2022/08/27 04:14:46;;;;;;;0.07;0.07;;;14.60;99.90;;;;;;5026600;28;20071;-89
2022/08/27 04:17:12;;;;;;;0.37;0.20;;;14.70;99.90;;;;;;5040484;28;20082;-89
2022/08/27 04:19:38;;;;;;;2.20;0.10;;;14.70;99.90;;;;;;5035130;28;20473;-89
2022/08/27 04:22:05;;;;;;;0.30;0.30;;;14.70;99.90;;;;;;5057656;28;20109;-87
2022/08/27 04:24:33;;;;;;;0.20;0.20;;;14.70;99.90;;;;;;5075276;28;20059;-88
2022/08/27 04:27:00;;;;;;;1.45;0.22;;;14.70;99.90;;;;;;5040905;28;20143;-88
2022/08/27 04:29:26;;;;;;;0.10;0.10;;;14.70;99.90;;;;;;5059006;28;20048;-88
2022/08/27 04:31:53;;;;;;;0.25;0.17;;;14.70;99.90;;;;;;5056286;28;20397;-85
2022/08/27 04:34:19;;;;;;;0.10;0.10;;;14.70;99.90;;;;;;5058512;28;20040;-89
2022/08/27 04:36:45;;;;;;;0.00;0.00;;;14.70;99.90;;;;;;5053861;28;20040;-89
2022/08/27 04:39:12;;;;;;;0.57;0.20;;;14.80;99.90;;;;;;5052931;28;20052;-89
2022/08/27 04:41:37;;;;;;;;;;;14.80;99.90;;;;;;5053692;28;20048;-89
2022/08/27 04:44:06;;;;;;;0.00;0.00;;;14.70;99.90;;;;;;5037686;28;19939;-88
2022/08/27 04:46:35;;;;;;;0.00;0.00;;;14.70;99.90;;;;;;5068782;28;20048;-89
2022/08/27 04:49:05;;;;;;;0.30;0.13;;;14.70;99.90;;;;;;5074746;28;20139;-88
2022/08/27 04:51:31;;;;;;;0.00;0.00;;;14.80;99.90;;;;;;5075221;28;20040;-89
2022/08/27 04:53:57;;;;;;;0.87;0.20;;;14.80;99.90;;;;;;5045784;28;20418;-86
2022/08/27 04:56:23;;;;;;;0.20;0.10;;;14.80;99.90;;;;;;5058285;28;20138;-89
2022/08/27 04:58:50;;;;;;;;;;;14.80;99.90;;;;;;5057559;28;20299;-89
2022/08/27 05:01:18;;;;;;;0.47;0.10;;;14.70;99.90;;;;;;5057867;28;19974;-89
2022/08/27 05:03:44;;;;;;;0.10;0.10;;;14.70;99.90;;;;;;5057516;28;20043;-88
2022/08/27 05:06:11;;;;;;;0.30;0.30;;;14.70;99.90;;;;;;5056956;28;20066;-89
2022/08/27 05:08:38;;;;;;;0.10;0.10;;;14.70;99.90;;;;;;5057098;28;20461;-89
2022/08/27 05:11:09;;;;;;;0.28;0.28;;;14.70;99.90;;;;;;5074038;28;20101;-88
2022/08/27 05:13:36;;;;;;;0.15;0.15;;;14.60;99.90;;;;;;5057232;28;20048;-88
2022/08/27 05:16:08;;;;;;;0.10;0.00;;;14.60;99.90;;;;;;5073818;28;20048;-88
2022/08/27 05:18:34;;;;;;;0.32;0.30;;;14.60;99.90;;;;;;5055938;28;20035;-88
2022/08/27 05:21:00;;;;;;;0.30;0.30;;;14.60;99.90;;;;;;5074482;28;20063;-85
2022/08/27 05:23:29;;;;;;;0.20;0.10;;;14.60;99.90;;;;;;5074394;28;20115;-88
2022/08/27 05:25:56;;;;;;;0.00;0.00;;;14.60;99.90;;;;;;5074477;28;20036;-88
2022/08/27 05:28:23;;;;;;;0.00;0.00;;;14.60;99.90;;;;;;5056791;28;20135;-89
2022/08/27 05:30:51;;;;;;;0.20;0.20;;;14.60;99.90;;;;;;5074288;28;20036;-89
2022/08/27 05:33:20;;;;;;;0.30;0.20;;;14.60;99.90;;;;;;5056381;28;20342;-89
2022/08/27 05:35:48;;;;;;;0.25;0.25;;;14.60;99.90;;;;;;5057176;28;20044;-89
2022/08/27 05:38:15;;;;;;;0.40;0.10;;;14.60;99.90;;;;;;5056416;28;20075;-89
2022/08/27 05:40:42;;;;;;;0.20;0.10;;;14.70;99.90;;;;;;5057838;28;20487;-89
2022/08/27 05:43:08;;;;;;;0.10;0.00;;;14.80;99.90;;;;;;5073631;28;20048;-88
2022/08/27 05:45:40;;;;;;;0.20;0.10;;;14.90;99.90;;;;;;5057249;28;20105;-89
2022/08/27 05:48:06;;;;;;;0.10;0.10;;;14.90;99.90;;;;;;5055513;28;20052;-88
2022/08/27 05:50:32;;;;;;;0.00;0.00;;;14.90;99.90;;;;;;5057724;28;20044;-88
2022/08/27 05:52:58;;;;;;;0.10;0.10;;;15.00;99.90;;;;;;5058428;28;20056;-89
2022/08/27 05:55:23;;;;;;;0.10;0.10;;;15.10;99.90;;;;;;5078415;28;20672;-90
2022/08/27 05:57:49;;;;;;;0.28;0.28;;;15.20;99.90;;;;;;5090479;28;20040;-89
2022/08/27 06:02:59;;;;;;;0.20;0.20;;;15.50;99.90;;;;;;5091013;28;20157;-91
2022/08/27 06:05:25;;;;;;;0.17;0.10;;;15.70;99.90;;;;;;5089859;28;20083;-87
2022/08/27 06:07:51;;;;;;;0.10;0.10;;;16.00;99.90;;;;;;5089429;28;20049;-88
2022/08/27 06:10:16;;;;;;;0.23;0.23;;;16.20;99.90;;;;;;5090467;28;20044;-87
2022/08/27 06:12:42;;;;;;;0.08;0.08;;;16.30;99.90;;;;;;5095398;28;20347;-87
2022/08/27 06:15:08;;;;;;;0.10;0.10;;;16.50;99.90;;;;;;5076866;28;20036;-85
2022/08/27 06:17:34;;;;;;;0.00;0.00;;;16.70;99.90;;;;;;5096666;28;20044;-84
2022/08/27 06:19:59;;;;;;;0.10;0.10;;;16.80;99.90;;;;;;5086727;28;20398;-89
2022/08/27 06:22:25;;;;;;;0.00;0.00;;;16.90;99.90;;;;;;5074602;28;20534;-83
2022/08/27 06:24:51;;;;;;;0.00;0.00;;;17.10;99.90;;;;;;5085489;28;20047;-85
2022/08/27 06:27:18;;;;;;;0.15;0.15;;;17.20;99.90;;;;;;5094313;28;20101;-86
2022/08/27 06:29:44;;;;;;;0.10;0.10;;;17.30;99.90;;;;;;5088865;28;20053;-86
2022/08/27 06:32:13;;;;;;;0.22;0.20;;;17.40;99.90;;;;;;5081504;28;20097;-84
2022/08/27 06:34:38;;;;;;;0.10;0.00;;;17.50;99.90;;;;;;5092828;28;20105;-82
2022/08/27 06:37:05;;;;;;;0.20;0.20;;;17.50;99.90;;;;;;5085869;28;20048;-87
2022/08/27 06:39:31;;;;;;;0.00;0.00;;;17.50;99.90;;;;;;5106450;28;20044;-88
2022/08/27 06:41:57;;;;;;;0.30;0.20;;;17.50;99.90;;;;;;5091354;28;20512;-84
2022/08/27 06:44:23;;;;;;;0.08;0.08;;;17.60;99.90;;;;;;5074690;28;20100;-88
2022/08/27 06:46:50;;;;;;;0.00;0.00;;;17.70;99.90;;;;;;5067097;28;20054;-85
2022/08/27 06:49:16;;;;;;;0.10;0.10;;;17.90;99.90;;;;;;5089165;28;20060;-85
2022/08/27 06:51:46;;;;;;;0.10;0.10;;;18.10;99.90;;;;;;5057824;28;20036;-86
2022/08/27 06:54:13;;;;;;;0.10;0.10;;;18.30;99.90;;;;;;5090058;28;20105;-84
2022/08/27 06:56:41;;;;;;;0.10;0.10;;;18.40;99.90;;;;;;5076734;28;20048;-87
2022/08/27 06:59:09;;;;;;;0.00;0.00;;;18.40;99.90;;;;;;5074982;28;20136;-86
2022/08/27 07:01:38;;;;;;;0.32;0.10;;;18.30;99.90;;;;;;5093641;28;20509;-87
2022/08/27 07:04:09;;;;;;;0.00;0.00;;;18.30;99.90;;;;;;5090285;28;20123;-85
2022/08/27 07:06:36;;;;;;;0.08;0.08;;;18.20;99.90;;;;;;5085316;28;20052;-84
2022/08/27 07:09:02;;;;;;;0.00;0.00;;;18.20;99.90;;;;;;5073658;28;20055;-85
2022/08/27 07:11:31;;;;;;;0.13;0.13;;;18.10;99.90;;;;;;5110839;28;20093;-85
2022/08/27 07:13:57;;;;;;;0.00;0.00;;;18.10;99.90;;;;;;5092150;28;20045;-85
2022/08/27 07:16:24;;;;;;;0.10;0.00;;;18.00;99.90;;;;;;5063315;28;20039;-86
2022/08/27 07:18:53;;;;;;;0.40;0.30;;;18.00;99.90;;;;;;5090698;28;20053;-85
2022/08/27 07:21:19;;;;;;;0.10;0.10;;;18.10;99.90;;;;;;5089312;28;20098;-85
2022/08/27 07:23:47;;;;;;;0.43;0.10;;;18.10;99.90;;;;;;5080781;28;20117;-83
2022/08/27 07:26:14;;;;;;;0.10;0.10;;;18.00;99.90;;;;;;5078986;28;20044;-85
2022/08/27 07:28:41;;;;;;;0.10;0.10;;;18.00;99.90;;;;;;5091824;28;20058;-84
2022/08/27 07:31:10;;;;;;;0.00;0.00;;;18.00;99.90;;;;;;5088803;28;20063;-85
2022/08/27 07:33:37;;;;;;;0.03;0.03;;;18.00;99.90;;;;;;5090897;28;20450;-84
2022/08/27 07:36:05;;;;;;;0.30;0.20;;;18.00;99.90;;;;;;5092531;28;20048;-84
2022/08/27 07:38:31;;;;;;;0.03;0.03;;;18.00;99.90;;;;;;5085701;28;20547;-83
2022/08/27 07:40:56;;;;;;;0.13;0.13;;;18.00;99.90;;;;;;5088622;28;20048;-85
2022/08/27 07:46:07;;;;;;;0.30;0.03;;;18.10;99.90;;;;;;5091459;28;20067;-84
2022/08/27 07:48:33;;;;;;;0.00;0.00;;;18.20;99.90;;;;;;5089891;28;20537;-84
2022/08/27 07:51:00;;;;;;;;;;;18.40;99.90;;;;;;5086174;28;20470;-84
2022/08/27 07:53:26;;;;;;;0.10;0.10;;;18.50;99.90;;;;;;5074959;28;19973;-83
2022/08/27 07:55:51;;;;;;;0.00;0.00;;;18.60;99.90;;;;;;5110095;28;20040;-84
2022/08/27 07:58:17;;;;;;;0.57;0.20;;;18.80;99.90;;;;;;5089104;28;20389;-84
2022/08/27 08:00:44;;;;;;;0.10;0.10;;;18.80;99.90;;;;;;5094409;28;20092;-84
2022/08/27 08:03:11;;;;;;;0.10;0.10;;;18.80;99.90;;;;;;5094585;28;20039;-83
2022/08/27 08:05:42;;;;;;;0.52;0.22;;;18.90;99.90;;;;;;5095566;28;20039;-85
2022/08/27 08:08:08;;;;;;;0.75;0.20;;;18.90;99.90;;;;;;5078170;28;20154;-84
2022/08/27 08:10:39;;;;;;;0.10;0.10;;;19.00;99.90;;;;;;5094587;28;20490;-84
2022/08/27 08:13:05;;;;;;;0.20;0.20;;;19.00;99.90;;;;;;5062448;28;20059;-85
2022/08/27 08:15:32;;;;;;;0.52;0.10;;;19.00;99.90;;;;;;5092479;28;20076;-84
2022/08/27 08:17:59;;;;;;;0.65;0.40;;;19.00;99.90;;;;;;5093313;28;20126;-85
2022/08/27 08:20:24;;;;;;;0.00;0.00;;;18.90;99.90;;;;;;5075278;28;20044;-86
2022/08/27 08:22:50;;;;;;;0.00;0.00;;;18.90;99.90;;;;;;5078674;28;20062;-85
2022/08/27 08:25:16;;;;;;;0.10;0.10;;;18.90;99.90;;;;;;5113009;28;20057;-86
2022/08/27 08:27:42;;;;;;;1.27;0.10;;;18.90;99.90;;;;;;5093899;28;20686;-86
2022/08/27 08:30:10;;;;;;;0.10;0.10;;;18.90;99.90;;;;;;5093038;28;20055;-85
2022/08/27 08:32:36;;;;;;;0.85;0.03;;;19.00;99.90;;;;;;5108232;28;20048;-85
2022/08/27 08:35:02;;;;;;;0.03;0.03;;;19.20;99.90;;;;;;5108979;28;20088;-87
2022/08/27 08:37:28;;;;;;;0.00;0.00;;;19.30;99.90;;;;;;5093073;28;20067;-85
2022/08/27 08:39:53;;;;;;;0.08;0.08;;;19.40;99.90;;;;;;5092249;28;20054;-86
2022/08/27 08:42:31;;;;;;;0.10;0.00;;;19.50;99.90;;;;;;5090172;28;20040;-88
2022/08/27 08:45:00;;;;;;;0.00;0.00;;;19.80;99.90;;;;;;5089584;28;20097;-87
2022/08/27 08:47:44;;;;;;;0.00;0.00;;;20.00;99.90;;;;;;5090022;28;20122;-85
2022/08/27 08:50:12;;;;;;;0.35;0.10;;;20.10;99.90;;;;;;5074231;28;20508;-88
2022/08/27 08:52:47;;;;;;;0.00;0.00;;;20.30;99.90;;;;;;5072093;28;20037;-87
2022/08/27 08:55:31;;;;;;;0.05;0.05;;;20.60;99.90;;;;;;5089036;28;20558;-85
2022/08/27 08:58:11;;;;;;;0.00;0.00;;;20.80;99.90;;;;;;5013640;28;22040;-88
2022/08/27 09:00:39;;;;;;;0.20;0.20;;;21.00;99.90;;;;;;5018156;28;163591;-88
2022/08/27 09:03:06;;;;;;;0.15;0.15;;;21.00;99.90;;;;;;5028851;28;20463;-87
2022/08/27 09:05:34;;;;;;;0.10;0.10;;;21.10;99.90;;;;;;5080305;28;20440;-86
2022/08/27 09:08:13;;;;;;;0.10;0.00;;;21.10;99.90;;;;;;5064202;28;20044;-86
2022/08/27 09:11:03;;;;;;;0.20;0.10;;;21.30;99.90;;;;;;5005920;28;20520;-86
2022/08/27 09:13:42;;;;;;;0.10;0.10;;;21.30;99.90;;;;;;5027091;28;20052;-82
2022/08/27 09:16:08;;;;;;;0.45;0.05;;;21.10;99.90;;;;;;5084745;28;20052;-90
2022/08/27 09:18:36;;;;;;;;;;;21.00;99.90;;;;;;5052424;28;20041;-88
2022/08/27 09:21:14;;;;;;;0.20;0.13;;;20.90;99.90;;;;;;5064067;28;20354;-88
2022/08/27 09:23:56;;;;;;;0.45;0.28;;;20.70;99.90;;;;;;5049203;28;20044;-86
2022/08/27 09:26:27;;;;;;;0.00;0.00;;;20.50;99.90;;;;;;5050714;28;20052;-89
2022/08/27 09:29:15;;;;;;;0.05;0.05;;;20.40;99.90;;;;;;5050780;28;20099;-88
2022/08/27 09:32:01;;;;;;;;;;;20.20;99.90;;;;;;5063282;28;20367;-86
2022/08/27 09:34:34;;;;;;;0.00;0.00;;;20.10;99.90;;;;;;5054312;28;20011;-86
2022/08/27 09:37:30;;;;;;;0.00;0.00;;;20.10;99.90;;;;;;5053154;28;20041;-86
2022/08/27 09:40:08;;;;;;;0.10;0.00;;;20.00;99.90;;;;;;5042521;28;20082;-86
2022/08/27 09:42:47;;;;;;;0.10;0.10;;;20.00;99.90;;;;;;5063170;28;20505;-85
2022/08/27 09:45:26;;;;;;;0.35;0.20;;;20.00;99.90;;;;;;5049196;28;20110;-86
2022/08/27 09:48:15;;;;;;;0.00;0.00;;;20.00;99.90;;;;;;5053091;28;20487;-89
2022/08/27 09:50:51;;;;;;;0.00;0.00;;;20.00;99.90;;;;;;5044799;28;20037;-87
2022/08/27 09:53:24;;;;;;;0.10;0.10;;;20.10;99.90;;;;;;5052203;28;20044;-90
2022/08/27 09:55:56;;;;;;;0.00;0.00;;;20.00;99.90;;;;;;5062079;28;20049;-85
2022/08/27 09:58:28;;;;;;;0.08;0.08;;;20.10;99.90;;;;;;5050675;28;20079;-84
2022/08/27 10:01:14;;;;;;;0.00;0.00;;;20.10;99.90;;;;;;5051663;28;20051;-85
2022/08/27 10:03:41;;;;;;;0.20;0.00;;;20.10;99.90;;;;;;5033963;28;20049;-85
2022/08/27 10:06:07;;;;;;;0.15;0.10;;;20.00;99.90;;;;;;5034424;28;20049;-85
2022/08/27 10:08:40;;;;;;;0.00;0.00;;;20.00;99.90;;;;;;5034410;28;20057;-85
2022/08/27 10:11:15;;;;;;;0.00;0.00;;;19.90;99.90;;;;;;5050675;28;20060;-85
2022/08/27 10:14:00;;;;;;;0.00;0.00;;;19.90;99.90;;;;;;5033876;28;20056;-85
2022/08/27 10:16:53;;;;;;;0.10;0.10;;;19.80;99.90;;;;;;5034491;28;20055;-85
2022/08/27 10:19:50;;;;;;;0.00;0.00;;;19.80;99.90;;;;;;5034391;28;20059;-86
2022/08/27 10:22:38;;;;;;;0.00;0.00;;;19.80;99.90;;;;;;5034414;28;20072;-85
2022/08/27 10:25:06;;;;;;;;;;;19.90;99.90;;;;;;5034515;28;20122;-85
2022/08/27 10:27:44;;;;;;;0.00;0.00;;;19.90;99.90;;;;;;5066431;28;19920;-85
2022/08/27 10:30:14;;;;;;;0.10;0.10;;;19.90;99.90;;;;;;5034472;28;20106;-86
2022/08/27 10:33:02;;;;;;;0.00;0.00;;;20.00;99.90;;;;;;5050198;28;20120;-85
2022/08/27 10:35:36;;;;;;;0.10;0.10;;;20.20;99.90;;;;;;5033941;28;20037;-85
2022/08/27 10:38:20;;;;;;;0.25;0.10;;;20.40;99.90;;;;;;5050212;28;20045;-85
2022/08/27 10:41:23;;;;;;;0.00;0.00;;;20.40;99.90;;;;;;5033588;28;20091;-85
2022/08/27 10:44:04;;;;;;;0.10;0.10;;;20.40;99.90;;;;;;5050229;28;20053;-85
2022/08/27 10:46:45;;;;;;;0.20;0.10;;;20.50;99.90;;;;;;5034165;28;20148;-86
2022/08/27 10:49:35;;;;;;;0.00;0.00;;;20.40;99.90;;;;;;5034162;28;20139;-86
2022/08/27 10:52:01;;;;;;;0.00;0.00;;;20.50;99.90;;;;;;5033574;28;20105;-85
2022/08/27 10:54:42;;;;;;;0.45;0.10;;;20.50;99.90;;;;;;5050145;28;20057;-85
2022/08/27 10:57:33;;;;;;;1.35;0.73;;;20.50;99.90;;;;;;5034813;28;20472;-85
2022/08/27 11:00:14;;;;;;;0.00;0.00;;;20.50;99.90;;;;;;5026326;28;20115;-85
2022/08/27 11:03:09;;;;;;;0.00;0.00;;;20.50;99.90;;;;;;5034536;28;20076;-85
2022/08/27 11:05:38;;;;;;;0.10;0.00;;;20.50;99.90;;;;;;5012605;28;20054;-85
2022/08/27 11:08:49;;;;;;;0.00;0.00;;;20.60;99.90;;;;;;5067037;28;20085;-86
2022/08/27 11:11:37;;;;;;;0.10;0.00;;;20.90;99.90;;;;;;4974502;28;20066;-85
2022/08/27 11:14:08;;;;;;;0.20;0.00;;;20.90;99.90;;;;;;4941858;28;20329;-85
2022/08/27 11:16:45;;;;;;;0.00;0.00;;;20.90;99.90;;;;;;5016661;28;20079;-85
2022/08/27 11:19:25;;;;;;;0.20;0.10;;;20.70;99.90;;;;;;5018048;28;20068;-85
2022/08/27 11:22:12;;;;;;;0.00;0.00;;;20.60;99.90;;;;;;5033956;28;20068;-85
2022/08/27 11:24:48;;;;;;;0.03;0.03;;;20.50;99.90;;;;;;5017737;28;20471;-85
2022/08/27 11:27:18;;;;;;;0.10;0.10;;;20.50;99.90;;;;;;5025936;28;20395;-85
2022/08/27 11:29:51;;;;;;;0.00;0.00;;;20.40;99.90;;;;;;5036618;28;20055;-85
2022/08/27 11:32:43;;;;;;;0.00;0.00;;;20.40;99.90;;;;;;5037452;28;20095;-85
2022/08/27 11:35:40;;;;;;;0.35;0.10;;;20.30;99.90;;;;;;5036804;28;20045;-85
2022/08/27 11:38:32;;;;;;;0.08;0.08;;;20.10;99.90;;;;;;5031162;28;20444;-85
2022/08/27 11:41:17;;;;;;;0.88;0.00;;;20.40;99.90;;;;;;5036951;28;20091;-85
2022/08/27 11:43:46;;;;;;;0.00;0.00;;;20.40;99.90;;;;;;5053793;28;20111;-85
2022/08/27 11:46:25;;;;;;;0.00;0.00;;;20.50;99.90;;;;;;5037114;28;20052;-85
2022/08/27 11:49:00;;;;;;;0.00;0.00;;;20.60;99.90;;;;;;5036659;28;20053;-85
2022/08/27 11:51:35;;;;;;;0.15;0.15;;;20.70;99.90;;;;;;5053503;28;20080;-85
2022/08/27 11:54:08;;;;;;;0.22;0.10;;;20.70;99.90;;;;;;5036117;28;20061;-85
2022/08/27 11:56:40;;;;;;;0.00;0.00;;;20.70;99.90;;;;;;5037150;28;20430;-85
2022/08/27 11:59:20;;;;;;;0.10;0.10;;;20.80;99.90;;;;;;5069593;28;20394;-85
2022/08/27 12:01:46;;;;;;;0.00;0.00;;;20.80;99.90;;;;;;5053435;28;20056;-85
2022/08/27 12:04:30;;;;;;;0.17;0.10;;;20.80;99.90;;;;;;5052967;28;20056;-85
2022/08/27 12:07:06;;;;;;;0.32;0.10;;;20.90;99.90;;;;;;5052725;28;20526;-85
2022/08/27 12:09:55;;;;;;;0.00;0.00;;;21.00;99.90;;;;;;5053080;28;20055;-85
2022/08/27 12:12:48;;;;;;;0.10;0.10;;;21.30;99.90;;;;;;5053191;28;20517;-85
2022/08/27 12:15:21;;;;;;;0.00;0.00;;;21.60;99.90;;;;;;5052676;28;20052;-85
2022/08/27 12:18:02;;;;;;;0.00;0.00;;;21.90;99.90;;;;;;5053272;28;20084;-85
2022/08/27 12:20:46;;;;;;;0.10;0.10;;;21.90;99.90;;;;;;5053104;28;20049;-85
2022/08/27 12:23:39;;;;;;;0.05;0.03;;;21.90;99.90;;;;;;5052627;28;20044;-85
2022/08/27 12:26:33;;;;;;;0.00;0.00;;;22.00;99.90;;;;;;5052644;28;20187;-84
2022/08/27 12:29:17;;;;;;;0.00;0.00;;;22.10;99.90;;;;;;5032135;28;20049;-85
2022/08/27 12:31:47;;;;;;;0.10;0.00;;;22.20;99.90;;;;;;5035387;28;20091;-85
2022/08/27 12:34:19;;;;;;;0.10;0.10;;;22.40;99.90;;;;;;5052087;28;20459;-85
2022/08/27 12:36:48;;;;;;;0.25;0.22;;;22.60;99.90;;;;;;5052454;28;20569;-85
2022/08/27 12:39:20;;;;;;;0.30;0.17;;;22.70;99.90;;;;;;5035780;28;20064;-85
2022/08/27 12:41:48;;;;;;;0.20;0.00;;;22.90;99.90;;;;;;5036228;28;20403;-85
2022/08/27 12:44:31;;;;;;;0.10;0.10;;;23.00;99.90;;;;;;5035252;28;20045;-85
2022/08/27 12:47:04;;;;;;;0.00;0.00;;;22.90;99.90;;;;;;5035290;28;20440;-85
2022/08/27 12:49:36;;;;;;;0.00;0.00;;;22.80;99.90;;;;;;5052551;28;20045;-85
2022/08/27 12:52:13;;;;;;;0.00;0.00;;;22.60;99.90;;;;;;5035543;28;20052;-85
2022/08/27 12:54:44;;;;;;;0.05;0.05;;;22.40;99.90;;;;;;5035290;28;20052;-85
2022/08/27 12:57:43;;;;;;;0.00;0.00;;;22.20;99.90;;;;;;5033720;28;20052;-85
2022/08/27 13:00:21;;;;;;;0.20;0.20;;;22.20;99.90;;;;;;5017418;28;20056;-85
2022/08/27 13:02:58;;;;;;;0.15;0.05;;;22.40;99.90;;;;;;5051983;28;20550;-85
2022/08/27 13:05:24;;;;;;;;;;;22.50;99.90;;;;;;5036034;28;20076;-85
2022/08/27 13:07:53;;;;;;;0.00;0.00;;;22.70;99.90;;;;;;5035491;28;19943;-85
2022/08/27 13:10:30;;;;;;;0.10;0.10;;;22.90;99.90;;;;;;5051679;28;20084;-84
2022/08/27 13:13:06;;;;;;;0.10;0.08;;;23.00;99.90;;;;;;5035526;28;20170;-85
2022/08/27 13:15:33;;;;;;;0.20;0.20;;;22.80;99.90;;;;;;5035288;28;20083;-85